Time;durP1;ratioP1;P1;durP2;ratioP2;P2;SDS_P1;SDS_P2;PMS_P1;PMS_P2;Temp;Humidity;BMP_temperature;BMP_pressure;BME280_temperature;BME280_humidity;BME280_pressure;Samples;Min_cycle;Max_cycle;Signal;HPM_P1;HPM_P2
2019/06/12 00:00:43;;;;;;;11;9.4;;;;;;;17.3;77.50488;996.1953;;;;
2019/06/12 00:03:08;;;;;;;9.8;8.9;;;;;;;17.14;78.16309;996.2366;;;;
2019/06/12 00:05:33;;;;;;;10.2;9.1;;;;;;;17.06;78.6709;996.2347;;;;
2019/06/12 00:07:58;;;;;;;9.7;8.8;;;;;;;17.03;78.82813;996.1688;;;;
2019/06/12 00:10:24;;;;;;;10.4;9.3;;;;;;;17.01;78.93945;996.19;;;;
2019/06/12 00:12:49;;;;;;;10.6;9.6;;;;;;;16.97;78.93359;996.2061;;;;
2019/06/12 00:15:14;;;;;;;10.1;9;;;;;;;16.99;79.00781;996.1636;;;;
2019/06/12 00:17:39;;;;;;;11.8;9.5;;;;;;;17.03;78.61914;996.1169;;;;
2019/06/12 00:20:04;;;;;;;10.3;9.3;;;;;;;17.05;78.45996;996.1553;;;;
2019/06/12 00:22:29;;;;;;;11.5;9.4;;;;;;;16.93;78.96191;996.1079;;;;
2019/06/12 00:24:54;;;;;;;10.2;9.2;;;;;;;16.95;78.91797;996.0438;;;;
2019/06/12 00:27:20;;;;;;;10.1;9;;;;;;;16.96;79.19824;996.065;;;;
2019/06/12 00:29:45;;;;;;;10.7;9.6;;;;;;;16.88;79.11426;996.1287;;;;
2019/06/12 00:32:11;;;;;;;10.7;9.3;;;;;;;16.95;78.96484;996.1486;;;;
2019/06/12 00:34:37;;;;;;;11.1;9.1;;;;;;;16.9;78.91016;996.1024;;;;
2019/06/12 00:37:02;;;;;;;9.8;8.9;;;;;;;16.84;79.16602;996.0527;;;;
2019/06/12 00:39:27;;;;;;;10.4;9.4;;;;;;;16.85;79.26074;995.9959;;;;
2019/06/12 00:41:52;;;;;;;10.1;9.1;;;;;;;16.81;79.38184;996.0268;;;;
2019/06/12 00:44:17;;;;;;;9.5;8.6;;;;;;;16.76;79.61621;995.9871;;;;
2019/06/12 00:46:42;;;;;;;10;9;;;;;;;16.83;79.15234;995.9952;;;;
2019/06/12 00:49:07;;;;;;;9.7;8.7;;;;;;;16.86;79.06445;995.9294;;;;
2019/06/12 00:51:32;;;;;;;9.8;8.9;;;;;;;16.74;79.44824;996.0009;;;;
2019/06/12 00:53:59;;;;;;;11.7;9;;;;;;;16.81;79.49805;995.9517;;;;
2019/06/12 00:56:24;;;;;;;9.8;8.9;;;;;;;16.86;79.07617;995.9226;;;;
2019/06/12 00:58:49;;;;;;;10;9;;;;;;;16.78;79.33008;995.9888;;;;
2019/06/12 01:01:15;;;;;;;11.5;9.3;;;;;;;16.77;79.46777;995.9511;;;;
2019/06/12 01:03:40;;;;;;;9.7;8.7;;;;;;;16.8;79.47266;996.0494;;;;
2019/06/12 01:06:05;;;;;;;10.1;9.1;;;;;;;16.74;79.84277;996.0619;;;;
2019/06/12 01:08:30;;;;;;;9.9;8.9;;;;;;;16.76;79.81348;996.0867;;;;
2019/06/12 01:10:55;;;;;;;9.6;8.6;;;;;;;16.87;79.37012;996.1384;;;;
2019/06/12 01:13:20;;;;;;;10.9;8.8;;;;;;;16.74;79.83301;996.1775;;;;
2019/06/12 01:15:45;;;;;;;9.3;8.4;;;;;;;16.8;79.86816;996.2185;;;;
2019/06/12 01:18:10;;;;;;;10;9;;;;;;;16.84;79.29395;996.2277;;;;
2019/06/12 01:20:36;;;;;;;10.7;9.7;;;;;;;16.82;79.56934;996.1892;;;;
2019/06/12 01:23:01;;;;;;;9.6;8.6;;;;;;;16.81;79.78809;996.1617;;;;
2019/06/12 01:25:26;;;;;;;9.3;8.4;;;;;;;16.87;79.41504;996.1488;;;;
2019/06/12 01:27:51;;;;;;;8.8;7.9;;;;;;;16.77;79.6543;996.1236;;;;
2019/06/12 01:30:18;;;;;;;8.8;7.9;;;;;;;16.84;79.38672;996.0374;;;;
2019/06/12 01:32:43;;;;;;;9.2;8.3;;;;;;;16.73;79.69238;996.0299;;;;
2019/06/12 01:35:08;;;;;;;9.1;8.2;;;;;;;16.78;79.35352;995.9409;;;;
2019/06/12 01:37:33;;;;;;;9;8.2;;;;;;;16.77;79.15332;995.9129;;;;
2019/06/12 01:39:58;;;;;;;9.1;8.2;;;;;;;16.58;79.88477;995.8621;;;;
2019/06/12 01:42:26;;;;;;;9.2;8.3;;;;;;;16.69;79.46484;995.8517;;;;
2019/06/12 01:44:51;;;;;;;8.8;7.9;;;;;;;16.66;79.54004;995.7633;;;;
2019/06/12 01:47:16;;;;;;;8.9;7.9;;;;;;;16.61;79.49512;995.7908;;;;
2019/06/12 01:49:41;;;;;;;9;7.7;;;;;;;16.66;79.33105;995.7724;;;;
2019/06/12 01:52:06;;;;;;;8.7;7.8;;;;;;;16.71;79.31738;995.6937;;;;
2019/06/12 01:54:31;;;;;;;8.7;7.8;;;;;;;16.61;79.61133;995.5869;;;;
2019/06/12 01:56:56;;;;;;;9.3;7.8;;;;;;;16.63;79.62793;995.4611;;;;
2019/06/12 01:59:21;;;;;;;8.8;7.9;;;;;;;16.43;80.27441;995.3145;;;;
2019/06/12 02:01:47;;;;;;;8.7;7.8;;;;;;;16.46;80.31445;995.1914;;;;
2019/06/12 02:04:12;;;;;;;8.8;7.5;;;;;;;16.48;79.72754;995.1186;;;;
2019/06/12 02:06:37;;;;;;;8.4;7.2;;;;;;;16.39;80.0957;995.038;;;;
2019/06/12 02:09:03;;;;;;;8;7.3;;;;;;;16.38;80.37109;995.088;;;;
2019/06/12 02:11:27;;;;;;;8.4;7.6;;;;;;;16.42;80.0293;995.0845;;;;
2019/06/12 02:13:52;;;;;;;8.1;7.3;;;;;;;16.39;80.24707;995.0705;;;;
2019/06/12 02:16:18;;;;;;;8.4;7.4;;;;;;;16.38;80.19727;995.1569;;;;
2019/06/12 02:18:43;;;;;;;8.8;7.9;;;;;;;16.37;80.4043;995.1877;;;;
2019/06/12 02:21:08;;;;;;;9;8.1;;;;;;;16.37;80.68262;995.2704;;;;
2019/06/12 02:23:33;;;;;;;8.7;7.9;;;;;;;16.43;80.49512;995.1871;;;;
2019/06/12 02:25:58;;;;;;;9.3;8;;;;;;;16.48;80.21484;995.2227;;;;
2019/06/12 02:28:23;;;;;;;9.8;8;;;;;;;16.49;80.12207;995.2439;;;;
2019/06/12 02:30:48;;;;;;;8.4;7.5;;;;;;;16.56;79.85645;995.2564;;;;
2019/06/12 02:33:14;;;;;;;8;7.2;;;;;;;16.62;79.58008;995.2852;;;;
2019/06/12 02:35:39;;;;;;;8.3;7.5;;;;;;;16.56;79.83496;995.2952;;;;
2019/06/12 02:38:04;;;;;;;8.9;8;;;;;;;16.61;79.53027;995.2466;;;;
2019/06/12 02:40:29;;;;;;;8.6;7.8;;;;;;;16.63;79.30078;995.1799;;;;
2019/06/12 02:42:54;;;;;;;8;7.3;;;;;;;16.45;80.33789;995.139;;;;
2019/06/12 02:45:19;;;;;;;8.4;7.6;;;;;;;16.47;80.20215;995.0439;;;;
2019/06/12 02:47:44;;;;;;;9.3;7.2;;;;;;;16.64;79.46484;995.0558;;;;
2019/06/12 02:50:09;;;;;;;8.5;7.5;;;;;;;16.38;80.2666;995.0385;;;;
2019/06/12 02:52:34;;;;;;;8;7.2;;;;;;;16.45;79.80371;994.9409;;;;
2019/06/12 02:54:59;;;;;;;8.9;7.3;;;;;;;16.46;79.80371;994.8978;;;;
2019/06/12 02:57:24;;;;;;;8.4;7.4;;;;;;;16.39;80.37305;994.9036;;;;
2019/06/12 02:59:50;;;;;;;8.3;7.6;;;;;;;16.44;79.73242;994.8423;;;;
2019/06/12 03:02:15;;;;;;;8.9;7.2;;;;;;;16.39;79.67773;994.8195;;;;
2019/06/12 03:04:40;;;;;;;7.9;7.1;;;;;;;16.5;79.31348;994.7955;;;;
2019/06/12 03:07:05;;;;;;;8.2;7.4;;;;;;;16.38;79.61719;994.7676;;;;
2019/06/12 03:09:30;;;;;;;8;7.2;;;;;;;16.45;79.4541;994.748;;;;
2019/06/12 03:11:55;;;;;;;9.4;7.7;;;;;;;16.46;79.39746;994.7623;;;;
2019/06/12 03:14:20;;;;;;;7.9;7.1;;;;;;;16.66;78.68066;994.817;;;;
2019/06/12 03:16:45;;;;;;;8.5;6.8;;;;;;;16.51;79.4209;994.6803;;;;
2019/06/12 03:19:10;;;;;;;8.3;7.5;;;;;;;16.46;79.13281;994.7453;;;;
2019/06/12 03:21:36;;;;;;;8;7.2;;;;;;;16.58;78.85156;994.7936;;;;
2019/06/12 03:24:01;;;;;;;8.2;7.4;;;;;;;16.56;78.86035;994.7874;;;;
2019/06/12 03:26:26;;;;;;;8.2;7.3;;;;;;;16.54;79.14746;994.7866;;;;
2019/06/12 03:28:51;;;;;;;8.6;7.3;;;;;;;16.45;79.36328;994.7594;;;;
2019/06/12 03:31:16;;;;;;;8.4;7.3;;;;;;;16.43;79.42969;994.6704;;;;
2019/06/12 03:33:41;;;;;;;8.4;7.3;;;;;;;16.55;78.56836;994.6597;;;;
2019/06/12 03:36:06;;;;;;;8;7.2;;;;;;;16.61;78.46191;994.6697;;;;
2019/06/12 03:38:31;;;;;;;8;7.2;;;;;;;16.46;79.14258;994.6376;;;;
2019/06/12 03:40:56;;;;;;;7.5;6.7;;;;;;;16.52;78.95801;994.6958;;;;
2019/06/12 03:43:21;;;;;;;7.8;7.1;;;;;;;16.47;79.35449;994.5989;;;;
2019/06/12 03:45:47;;;;;;;8.3;6.9;;;;;;;16.68;78.3584;994.5859;;;;
2019/06/12 03:48:12;;;;;;;9.4;6.9;;;;;;;16.67;78.28711;994.5701;;;;
2019/06/12 03:50:37;;;;;;;8.1;7.3;;;;;;;16.56;78.60352;994.5352;;;;
2019/06/12 03:53:02;;;;;;;8.1;7.3;;;;;;;16.51;78.8623;994.4417;;;;
2019/06/12 03:55:27;;;;;;;9.9;7.7;;;;;;;16.6;78.03223;994.4824;;;;
2019/06/12 03:57:53;;;;;;;9.1;7.4;;;;;;;16.56;78.38281;994.4617;;;;
2019/06/12 04:02:28;;;;;;;9.7;7.7;;;;;;;16.6;78.25195;994.3498;;;;
2019/06/12 04:04:53;;;;;;;9.7;7.8;;;;;;;16.49;78.66113;994.2742;;;;
2019/06/12 04:07:18;;;;;;;8.5;7.6;;;;;;;16.5;78.58203;994.3164;;;;
2019/06/12 04:09:43;;;;;;;8.5;7.6;;;;;;;16.57;78.30469;994.3334;;;;
2019/06/12 04:12:08;;;;;;;9.3;7.8;;;;;;;16.55;78.40625;994.3074;;;;
2019/06/12 04:14:33;;;;;;;8.9;7.8;;;;;;;16.43;79;994.2419;;;;
2019/06/12 04:16:58;;;;;;;10;8;;;;;;;16.36;79.44922;994.2411;;;;
2019/06/12 04:19:23;;;;;;;7.9;7.2;;;;;;;16.5;78.79297;994.2504;;;;
2019/06/12 04:21:50;;;;;;;9.1;7.6;;;;;;;16.39;79.20117;994.231;;;;
2019/06/12 04:24:15;;;;;;;10.2;7.9;;;;;;;16.42;78.75488;994.2952;;;;
2019/06/12 04:26:40;;;;;;;9.3;7.6;;;;;;;16.58;78.36426;994.4372;;;;
2019/06/12 04:29:07;;;;;;;9.9;7.4;;;;;;;16.66;77.97266;994.5603;;;;
2019/06/12 04:31:32;;;;;;;8.2;7.4;;;;;;;16.5;78.66504;994.4877;;;;
2019/06/12 04:33:58;;;;;;;9.3;8;;;;;;;16.34;78.78613;994.3342;;;;
2019/06/12 04:36:23;;;;;;;8.6;7.7;;;;;;;16.37;78.83789;994.2968;;;;
2019/06/12 04:38:48;;;;;;;8.3;7.4;;;;;;;16.32;79.25781;994.3299;;;;
2019/06/12 04:41:13;;;;;;;9.4;8.4;;;;;;;16.26;79.21289;994.3535;;;;
2019/06/12 04:43:38;;;;;;;9.3;8.4;;;;;;;16.39;78.65527;994.4575;;;;
2019/06/12 04:46:03;;;;;;;9.6;7.8;;;;;;;16.4;78.63379;994.4821;;;;
2019/06/12 04:48:28;;;;;;;10.3;8.5;;;;;;;16.46;78.67871;994.5153;;;;
2019/06/12 04:50:54;;;;;;;10;8.3;;;;;;;16.47;78.58691;994.4369;;;;
2019/06/12 04:53:19;;;;;;;11;8.7;;;;;;;16.47;78.33301;994.3405;;;;
2019/06/12 04:55:44;;;;;;;10.2;9.1;;;;;;;16.39;78.62109;994.2932;;;;
2019/06/12 04:58:09;;;;;;;11.9;9.4;;;;;;;16.45;78.33008;994.3137;;;;
2019/06/12 05:00:34;;;;;;;10.6;9;;;;;;;16.41;78.23047;994.43;;;;
2019/06/12 05:02:59;;;;;;;11.1;8.8;;;;;;;16.43;78.29199;994.457;;;;
2019/06/12 05:05:25;;;;;;;9.3;8.3;;;;;;;16.47;78.34375;994.3447;;;;
2019/06/12 05:07:51;;;;;;;10.8;8.6;;;;;;;16.44;78.60742;994.2675;;;;
2019/06/12 05:10:16;;;;;;;10.3;8.6;;;;;;;16.59;77.87793;994.2769;;;;
2019/06/12 05:12:41;;;;;;;10;9;;;;;;;16.52;77.9834;994.3354;;;;
2019/06/12 05:15:06;;;;;;;9.8;8.8;;;;;;;16.51;77.86426;994.3387;;;;
2019/06/12 05:17:32;;;;;;;12.2;9.1;;;;;;;16.5;77.66504;994.3499;;;;
2019/06/12 05:19:58;;;;;;;11.4;9.3;;;;;;;16.47;77.86914;994.3855;;;;
2019/06/12 05:22:23;;;;;;;10.6;9.1;;;;;;;16.46;77.83301;994.4716;;;;
2019/06/12 05:24:48;;;;;;;11.4;9.3;;;;;;;16.48;77.56934;994.6581;;;;
2019/06/12 05:27:15;;;;;;;11.5;9.2;;;;;;;16.37;78.41895;994.6117;;;;
2019/06/12 05:29:40;;;;;;;10.3;9.1;;;;;;;16.32;78.73535;994.5143;;;;
2019/06/12 05:32:05;;;;;;;12.3;9.5;;;;;;;16.36;78.68555;994.6008;;;;
2019/06/12 05:34:31;;;;;;;12.2;9;;;;;;;16.13;79.83594;994.6453;;;;
2019/06/12 05:36:56;;;;;;;11.4;9.6;;;;;;;16.17;79.69531;994.7;;;;
2019/06/12 05:39:22;;;;;;;10.2;9.2;;;;;;;16.19;79.53613;994.7198;;;;
2019/06/12 05:41:47;;;;;;;12.7;9.5;;;;;;;16.12;79.47656;994.7567;;;;
2019/06/12 05:44:13;;;;;;;11.3;10;;;;;;;15.95;80.18555;994.8571;;;;
2019/06/12 05:46:38;;;;;;;12.6;10.3;;;;;;;16.07;79.90723;994.817;;;;
2019/06/12 05:49:03;;;;;;;11.8;9.6;;;;;;;16.11;79.67188;994.624;;;;
2019/06/12 05:51:28;;;;;;;11.4;10.1;;;;;;;16.02;79.91113;994.6094;;;;
2019/06/12 05:53:53;;;;;;;11.4;10.2;;;;;;;16;79.98828;994.7939;;;;
2019/06/12 05:56:18;;;;;;;12.9;9.9;;;;;;;15.98;80.46094;994.9171;;;;
2019/06/12 05:58:45;;;;;;;12;9.9;;;;;;;16.1;79.64551;994.8434;;;;
2019/06/12 06:01:10;;;;;;;11.8;10;;;;;;;16;80.33496;994.9678;;;;
2019/06/12 06:03:35;;;;;;;11.8;9.9;;;;;;;15.86;80.85449;994.9844;;;;
2019/06/12 06:06:00;;;;;;;11.5;10.3;;;;;;;15.79;81.32813;994.9668;;;;
2019/06/12 06:08:26;;;;;;;12;10.1;;;;;;;15.68;81.90039;994.9534;;;;
2019/06/12 06:10:51;;;;;;;13.8;9.9;;;;;;;15.82;81.42773;994.8734;;;;
2019/06/12 06:13:16;;;;;;;12.5;10.3;;;;;;;15.72;81.93066;994.8431;;;;
2019/06/12 06:15:44;;;;;;;11.4;10.1;;;;;;;15.72;82.05566;994.9437;;;;
2019/06/12 06:18:09;;;;;;;11.3;9.7;;;;;;;15.77;82.06445;995.0344;;;;
2019/06/12 06:20:34;;;;;;;10.5;9.2;;;;;;;15.81;81.78516;995.0758;;;;
2019/06/12 06:22:59;;;;;;;11.2;10;;;;;;;15.56;83.66992;995.1256;;;;
2019/06/12 06:25:24;;;;;;;10.8;9.7;;;;;;;15.56;83.85547;995.1859;;;;
2019/06/12 06:27:49;;;;;;;11.2;9.6;;;;;;;15.69;83.59375;995.2542;;;;
2019/06/12 06:30:15;;;;;;;10.5;9.4;;;;;;;15.67;83.90234;995.3209;;;;
2019/06/12 06:32:40;;;;;;;10.8;9.7;;;;;;;15.66;84.01465;995.3387;;;;
2019/06/12 06:35:05;;;;;;;12.5;10;;;;;;;15.47;84.53418;995.2831;;;;
2019/06/12 06:37:30;;;;;;;12;9.6;;;;;;;15.56;84.99219;995.252;;;;
2019/06/12 06:39:55;;;;;;;12.9;9.7;;;;;;;15.4;85.21484;995.1944;;;;
2019/06/12 06:42:22;;;;;;;9.8;8.8;;;;;;;15.42;84.68652;995.2469;;;;
2019/06/12 06:44:47;;;;;;;11.3;9.4;;;;;;;15.31;85.66113;995.3826;;;;
2019/06/12 06:47:12;;;;;;;10.3;9.2;;;;;;;15.35;85.7373;995.4676;;;;
2019/06/12 06:49:37;;;;;;;10.7;8.1;;;;;;;15.26;85.7793;995.6088;;;;
2019/06/12 06:52:02;;;;;;;9.3;8.4;;;;;;;15.18;86.06445;995.6555;;;;
2019/06/12 06:54:27;;;;;;;8.4;7.6;;;;;;;15.21;86.21973;995.6043;;;;
2019/06/12 06:56:53;;;;;;;8.5;7.6;;;;;;;15.26;86.19434;995.6389;;;;
2019/06/12 06:59:18;;;;;;;9.9;7;;;;;;;;;;;;;
2019/06/12 07:01:43;;;;;;;8.4;7.6;;;;;;;;;;;;;
2019/06/12 07:04:08;;;;;;;10.4;7.8;;;;;;;;;;;;;
2019/06/12 07:06:33;;;;;;;9.7;7.6;;;;;;;;;;;;;
2019/06/12 07:08:58;;;;;;;8.9;8;;;;;;;;;;;;;
2019/06/12 07:11:24;;;;;;;9.2;8;;;;;;;;;;;;;
2019/06/12 07:13:49;;;;;;;9.2;8.2;;;;;;;;;;;;;
2019/06/12 07:16:14;;;;;;;10.2;9.1;;;;;;;;;;;;;
2019/06/12 07:18:40;;;;;;;12.2;9.5;;;;;;;;;;;;;
2019/06/12 07:21:05;;;;;;;11.8;9.5;;;;;;;;;;;;;
2019/06/12 07:23:30;;;;;;;11.3;9.2;;;;;;;;;;;;;
2019/06/12 07:25:55;;;;;;;11.8;9.4;;;;;;;;;;;;;
2019/06/12 07:28:20;;;;;;;9.5;8.5;;;;;;;;;;;;;
2019/06/12 07:30:45;;;;;;;9.7;8.1;;;;;;;;;;;;;
2019/06/12 07:33:10;;;;;;;9.6;8.5;;;;;;;;;;;;;
2019/06/12 07:35:35;;;;;;;9.7;8.6;;;;;;;;;;;;;
2019/06/12 07:38:00;;;;;;;11.5;8.9;;;;;;;;;;;;;
2019/06/12 07:40:25;;;;;;;10.9;8.9;;;;;;;;;;;;;
2019/06/12 07:42:51;;;;;;;10.8;9;;;;;;;;;;;;;
2019/06/12 07:45:16;;;;;;;9.1;8.2;;;;;;;;;;;;;
2019/06/12 07:47:41;;;;;;;10;7.9;;;;;;;;;;;;;
2019/06/12 07:50:06;;;;;;;10.7;8.2;;;;;;;;;;;;;
2019/06/12 07:52:31;;;;;;;9.3;7.7;;;;;;;;;;;;;
2019/06/12 07:54:56;;;;;;;9.2;7.3;;;;;;;;;;;;;
2019/06/12 07:57:21;;;;;;;9.9;7.6;;;;;;;;;;;;;
2019/06/12 07:59:47;;;;;;;9.8;7.5;;;;;;;;;;;;;
2019/06/12 08:02:12;;;;;;;10.9;7.9;;;;;;;;;;;;;
2019/06/12 08:04:37;;;;;;;9.3;7;;;;;;;;;;;;;
2019/06/12 08:07:02;;;;;;;8.3;6.4;;;;;;;;;;;;;
2019/06/12 08:09:27;;;;;;;6.5;5.9;;;;;;;;;;;;;
2019/06/12 08:11:52;;;;;;;6.4;5.2;;;;;;;;;;;;;
2019/06/12 08:14:18;;;;;;;5.5;4.2;;;;;;;;;;;;;
2019/06/12 08:16:43;;;;;;;5;3.5;;;;;;;;;;;;;
2019/06/12 08:19:08;;;;;;;5.4;4.1;;;;;;;;;;;;;
2019/06/12 08:21:34;;;;;;;3.4;2.8;;;;;;;;;;;;;
2019/06/12 08:23:59;;;;;;;3.5;2.6;;;;;;;;;;;;;
2019/06/12 08:26:24;;;;;;;3.2;2.4;;;;;;;;;;;;;
2019/06/12 08:28:49;;;;;;;2.8;2.2;;;;;;;;;;;;;
2019/06/12 08:31:14;;;;;;;2.5;2.1;;;;;;;;;;;;;
2019/06/12 08:33:39;;;;;;;2.2;1.9;;;;;;;;;;;;;
2019/06/12 08:36:04;;;;;;;2.7;2;;;;;;;;;;;;;
2019/06/12 08:38:29;;;;;;;2.6;1.9;;;;;;;;;;;;;
2019/06/12 08:40:55;;;;;;;2.4;1.7;;;;;;;;;;;;;
2019/06/12 08:43:20;;;;;;;2.6;1.9;;;;;;;;;;;;;
2019/06/12 08:45:45;;;;;;;3;1.7;;;;;;;;;;;;;
2019/06/12 08:48:10;;;;;;;1.5;1.4;;;;;;;;;;;;;
2019/06/12 08:50:35;;;;;;;2.3;1.6;;;;;;;;;;;;;
2019/06/12 08:53:02;;;;;;;2;1.6;;;;;;;;;;;;;
2019/06/12 08:55:27;;;;;;;2.2;1.9;;;;;;;;;;;;;
2019/06/12 08:57:52;;;;;;;1.9;1.7;;;;;;;;;;;;;
2019/06/12 09:00:17;;;;;;;2.4;1.6;;;;;;;;;;;;;
2019/06/12 09:02:42;;;;;;;2;1.8;;;;;;;;;;;;;
2019/06/12 09:05:07;;;;;;;2.1;1.6;;;;;;;;;;;;;
2019/06/12 09:07:32;;;;;;;2;1.5;;;;;;;;;;;;;
2019/06/12 09:09:57;;;;;;;2;1.5;;;;;;;;;;;;;
2019/06/12 09:12:22;;;;;;;1.8;1.6;;;;;;;;;;;;;
2019/06/12 09:14:47;;;;;;;2.8;1.5;;;;;;;;;;;;;
2019/06/12 09:17:12;;;;;;;2.3;1.6;;;;;;;;;;;;;
2019/06/12 09:19:37;;;;;;;2;1.6;;;;;;;;;;;;;
2019/06/12 09:22:03;;;;;;;2;1.7;;;;;;;;;;;;;
2019/06/12 09:24:28;;;;;;;2.2;1.7;;;;;;;;;;;;;
2019/06/12 09:26:53;;;;;;;1.6;1.4;;;;;;;;;;;;;
2019/06/12 09:29:18;;;;;;;2.5;1.5;;;;;;;;;;;;;
2019/06/12 09:31:43;;;;;;;1.7;1.4;;;;;;;;;;;;;
2019/06/12 09:34:08;;;;;;;2;1.4;;;;;;;;;;;;;
2019/06/12 09:36:33;;;;;;;2.8;1.6;;;;;;;;;;;;;
2019/06/12 09:38:58;;;;;;;1.7;1.6;;;;;;;;;;;;;
2019/06/12 09:41:24;;;;;;;1.7;1.3;;;;;;;;;;;;;
2019/06/12 09:43:49;;;;;;;1.3;1.2;;;;;;;;;;;;;
2019/06/12 09:46:14;;;;;;;1.2;1.1;;;;;;;;;;;;;
2019/06/12 09:48:39;;;;;;;1.6;1.2;;;;;;;;;;;;;
2019/06/12 09:51:04;;;;;;;2.6;1.4;;;;;;;;;;;;;
2019/06/12 09:53:29;;;;;;;3.9;1.5;;;;;;;;;;;;;
2019/06/12 09:55:54;;;;;;;1.7;1.1;;;;;;;;;;;;;
2019/06/12 09:58:20;;;;;;;0.8;0.8;;;;;;;;;;;;;
2019/06/12 10:00:46;;;;;;;5.4;1.4;;;;;;;;;;;;;
2019/06/12 10:03:11;;;;;;;2.6;1.1;;;;;;;;;;;;;
2019/06/12 10:05:36;;;;;;;1.2;1.1;;;;;;;;;;;;;
2019/06/12 10:08:01;;;;;;;1.4;1;;;;;;;;;;;;;
2019/06/12 10:10:26;;;;;;;2.4;1.1;;;;;;;;;;;;;
2019/06/12 10:12:51;;;;;;;3.3;0.9;;;;;;;;;;;;;
2019/06/12 10:15:17;;;;;;;2;1.2;;;;;;;;;;;;;
2019/06/12 10:17:42;;;;;;;2.5;1.3;;;;;;;;;;;;;
2019/06/12 10:20:07;;;;;;;1.3;1.2;;;;;;;;;;;;;
2019/06/12 10:22:32;;;;;;;2.8;1.3;;;;;;;;;;;;;
2019/06/12 10:24:57;;;;;;;1.1;0.9;;;;;;;;;;;;;
2019/06/12 10:27:22;;;;;;;1.7;1.3;;;;;;;;;;;;;
2019/06/12 10:29:47;;;;;;;1.2;1.1;;;;;;;;;;;;;
2019/06/12 10:32:13;;;;;;;1.5;1.1;;;;;;;;;;;;;
2019/06/12 10:34:38;;;;;;;1.1;1;;;;;;;;;;;;;
2019/06/12 10:37:03;;;;;;;2.9;1.3;;;;;;;;;;;;;
2019/06/12 10:39:28;;;;;;;1.7;0.9;;;;;;;;;;;;;
2019/06/12 10:41:53;;;;;;;2.1;1.2;;;;;;;;;;;;;
2019/06/12 10:44:18;;;;;;;3.1;1;;;;;;;;;;;;;
2019/06/12 10:46:43;;;;;;;2.1;1;;;;;;;;;;;;;
2019/06/12 10:49:08;;;;;;;1.4;1.1;;;;;;;;;;;;;
2019/06/12 10:51:33;;;;;;;1.5;0.9;;;;;;;;;;;;;
2019/06/12 10:53:59;;;;;;;1;0.8;;;;;;;;;;;;;
2019/06/12 10:56:24;;;;;;;1.3;0.8;;;;;;;;;;;;;
2019/06/12 10:58:49;;;;;;;1;0.8;;;;;;;;;;;;;
2019/06/12 11:01:14;;;;;;;2.5;0.9;;;;;;;;;;;;;
2019/06/12 11:03:39;;;;;;;1.3;0.8;;;;;;;;;;;;;
2019/06/12 11:06:04;;;;;;;1.1;0.7;;;;;;;;;;;;;
2019/06/12 11:08:29;;;;;;;1.4;0.8;;;;;;;;;;;;;
2019/06/12 11:10:54;;;;;;;1.4;0.6;;;;;;;;;;;;;
2019/06/12 11:13:19;;;;;;;0.9;0.7;;;;;;;;;;;;;
2019/06/12 11:15:44;;;;;;;1;0.6;;;;;;;;;;;;;
2019/06/12 11:18:10;;;;;;;1.1;0.6;;;;;;;;;;;;;
2019/06/12 11:20:35;;;;;;;1;0.7;;;;;;;;;;;;;
2019/06/12 11:23:00;;;;;;;1;0.7;;;;;;;;;;;;;
2019/06/12 11:25:25;;;;;;;1.2;0.7;;;;;;;;;;;;;
2019/06/12 11:27:50;;;;;;;1.2;0.8;;;;;;;;;;;;;
2019/06/12 11:30:15;;;;;;;1.3;0.6;;;;;;;;;;;;;
2019/06/12 11:32:41;;;;;;;0.9;0.6;;;;;;;;;;;;;
2019/06/12 11:35:06;;;;;;;1.8;0.9;;;;;;;;;;;;;
2019/06/12 11:37:31;;;;;;;0.6;0.6;;;;;;;;;;;;;
2019/06/12 11:39:56;;;;;;;1.1;0.8;;;;;;;;;;;;;
2019/06/12 11:42:21;;;;;;;1.9;0.6;;;;;;;;;;;;;
2019/06/12 11:44:46;;;;;;;1.7;0.5;;;;;;;;;;;;;
2019/06/12 11:47:11;;;;;;;0.6;0.6;;;;;;;;;;;;;
2019/06/12 11:49:36;;;;;;;0.7;0.6;;;;;;;;;;;;;
2019/06/12 11:52:02;;;;;;;0.6;0.6;;;;;;;;;;;;;
2019/06/12 11:54:27;;;;;;;0.9;0.7;;;;;;;;;;;;;
2019/06/12 11:56:52;;;;;;;0.8;0.6;;;;;;;;;;;;;
2019/06/12 11:59:17;;;;;;;0.5;0.5;;;;;;;;;;;;;
2019/06/12 12:01:42;;;;;;;1.1;0.6;;;;;;;;;;;;;
2019/06/12 12:04:07;;;;;;;0.6;0.6;;;;;;;;;;;;;
2019/06/12 12:06:32;;;;;;;1;0.7;;;;;;;;;;;;;
2019/06/12 12:08:57;;;;;;;2.4;0.8;;;;;;;;;;;;;
2019/06/12 12:11:22;;;;;;;0.6;0.6;;;;;;;;;;;;;
2019/06/12 12:13:47;;;;;;;1.6;0.7;;;;;;;;;;;;;
2019/06/12 12:16:12;;;;;;;0.7;0.5;;;;;;;;;;;;;
2019/06/12 12:18:37;;;;;;;0.7;0.6;;;;;;;;;;;;;
2019/06/12 12:21:02;;;;;;;1.8;0.7;;;;;;;;;;;;;
2019/06/12 12:23:28;;;;;;;0.6;0.6;;;;;;;;;;;;;
2019/06/12 12:25:53;;;;;;;1;0.7;;;;;;;;;;;;;
2019/06/12 12:28:18;;;;;;;1.2;0.8;;;;;;;;;;;;;
2019/06/12 12:30:43;;;;;;;1.2;0.6;;;;;;;;;;;;;
2019/06/12 12:33:08;;;;;;;1.2;0.6;;;;;;;;;;;;;
2019/06/12 12:35:33;;;;;;;0.9;0.6;;;;;;;;;;;;;
2019/06/12 12:37:59;;;;;;;0.5;0.5;;;;;;;;;;;;;
2019/06/12 12:40:24;;;;;;;0.7;0.6;;;;;;;;;;;;;
2019/06/12 12:42:49;;;;;;;2.3;0.6;;;;;;;;;;;;;
2019/06/12 12:45:14;;;;;;;1.5;0.6;;;;;;;;;;;;;
2019/06/12 12:47:39;;;;;;;1.3;0.7;;;;;;;;;;;;;
2019/06/12 12:50:04;;;;;;;0.7;0.7;;;;;;;;;;;;;
2019/06/12 12:52:29;;;;;;;1.1;0.8;;;;;;;;;;;;;
2019/06/12 12:54:54;;;;;;;1.1;0.6;;;;;;;;;;;;;
2019/06/12 12:57:19;;;;;;;0.7;0.6;;;;;;;;;;;;;
2019/06/12 12:59:44;;;;;;;0.6;0.6;;;;;;;;;;;;;
2019/06/12 13:02:09;;;;;;;1;0.8;;;;;;;;;;;;;
2019/06/12 13:04:35;;;;;;;1.2;0.8;;;;;;;;;;;;;
2019/06/12 13:07:00;;;;;;;1.3;0.7;;;;;;;;;;;;;
2019/06/12 13:09:25;;;;;;;1.9;0.7;;;;;;;;;;;;;
2019/06/12 13:11:50;;;;;;;0.8;0.6;;;;;;;;;;;;;
2019/06/12 13:14:15;;;;;;;1.1;0.7;;;;;;;;;;;;;
2019/06/12 13:16:40;;;;;;;1.4;0.7;;;;;;;;;;;;;
2019/06/12 13:19:06;;;;;;;1;0.7;;;;;;;;;;;;;
2019/06/12 13:21:31;;;;;;;0.9;0.7;;;;;;;;;;;;;
2019/06/12 13:23:56;;;;;;;1;0.7;;;;;;;;;;;;;
2019/06/12 13:26:21;;;;;;;0.7;0.7;;;;;;;;;;;;;
2019/06/12 13:28:46;;;;;;;1.1;0.7;;;;;;;;;;;;;
2019/06/12 13:31:13;;;;;;;1.3;0.9;;;;;;;;;;;;;
2019/06/12 13:33:38;;;;;;;1.1;0.8;;;;;;;;;;;;;
2019/06/12 13:36:03;;;;;;;1.5;0.6;;;;;;;;;;;;;
2019/06/12 13:38:28;;;;;;;0.6;0.6;;;;;;;;;;;;;
2019/06/12 13:40:54;;;;;;;0.9;0.5;;;;;;;;;;;;;
2019/06/12 13:43:19;;;;;;;0.6;0.6;;;;;;;;;;;;;
2019/06/12 13:45:44;;;;;;;0.8;0.7;;;;;;;;;;;;;
2019/06/12 13:48:09;;;;;;;0.7;0.6;;;;;;;;;;;;;
2019/06/12 13:50:34;;;;;;;0.9;0.6;;;;;;;;;;;;;
2019/06/12 13:52:59;;;;;;;1.7;0.7;;;;;;;;;;;;;
2019/06/12 13:55:24;;;;;;;2;0.8;;;;;;;;;;;;;
2019/06/12 13:57:50;;;;;;;1.3;0.7;;;;;;;;;;;;;
2019/06/12 14:00:15;;;;;;;0.9;0.6;;;;;;;;;;;;;
2019/06/12 14:02:40;;;;;;;1;0.7;;;;;;;;;;;;;
2019/06/12 14:05:05;;;;;;;1.4;0.8;;;;;;;;;;;;;
2019/06/12 14:07:30;;;;;;;1.5;0.7;;;;;;;;;;;;;
2019/06/12 14:09:55;;;;;;;0.6;0.6;;;;;;;;;;;;;
2019/06/12 14:12:20;;;;;;;1;0.6;;;;;;;;;;;;;
2019/06/12 14:14:46;;;;;;;2.3;0.5;;;;;;;;;;;;;
2019/06/12 14:17:11;;;;;;;0.7;0.6;;;;;;;;;;;;;
2019/06/12 14:19:36;;;;;;;1.1;0.7;;;;;;;;;;;;;
2019/06/12 14:22:02;;;;;;;0.6;0.6;;;;;;;;;;;;;
2019/06/12 14:24:27;;;;;;;1.7;1.3;;;;;;;;;;;;;
2019/06/12 14:26:52;;;;;;;0.6;0.6;;;;;;;;;;;;;
2019/06/12 14:29:17;;;;;;;1.6;0.7;;;;;;;;;;;;;
2019/06/12 14:31:42;;;;;;;0.6;0.6;;;;;;;;;;;;;
2019/06/12 14:34:07;;;;;;;0.8;0.7;;;;;;;;;;;;;
2019/06/12 14:36:32;;;;;;;0.6;0.6;;;;;;;;;;;;;
2019/06/12 14:38:58;;;;;;;1;0.6;;;;;;;;;;;;;
2019/06/12 14:41:23;;;;;;;0.6;0.6;;;;;;;;;;;;;
2019/06/12 14:43:49;;;;;;;0.9;0.7;;;;;;;;;;;;;
2019/06/12 14:46:13;;;;;;;1.4;0.7;;;;;;;;;;;;;
2019/06/12 14:48:38;;;;;;;0.7;0.7;;;;;;;;;;;;;
2019/06/12 14:51:03;;;;;;;0.8;0.8;;;;;;;;;;;;;
2019/06/12 14:53:28;;;;;;;1.3;0.7;;;;;;;;;;;;;
2019/06/12 14:55:54;;;;;;;1;0.7;;;;;;;;;;;;;
2019/06/12 14:58:19;;;;;;;1.3;0.8;;;;;;;;;;;;;
2019/06/12 15:00:44;;;;;;;1.4;0.7;;;;;;;;;;;;;
2019/06/12 15:03:09;;;;;;;1.2;1;;;;;;;;;;;;;
2019/06/12 15:05:35;;;;;;;0.9;0.8;;;;;;;;;;;;;
2019/06/12 15:08:00;;;;;;;1.2;0.9;;;;;;;;;;;;;
2019/06/12 15:10:25;;;;;;;1.8;0.8;;;;;;;;;;;;;
2019/06/12 15:12:50;;;;;;;0.8;0.7;;;;;;;;;;;;;
2019/06/12 15:15:15;;;;;;;1.3;0.8;;;;;;;;;;;;;
2019/06/12 15:17:40;;;;;;;1.4;0.9;;;;;;;;;;;;;
2019/06/12 15:20:05;;;;;;;0.9;0.7;;;;;;;;;;;;;
2019/06/12 15:22:30;;;;;;;2.3;0.7;;;;;;;;;;;;;
2019/06/12 15:24:55;;;;;;;0.7;0.7;;;;;;;;;;;;;
2019/06/12 15:27:20;;;;;;;1.1;0.8;;;;;;;;;;;;;
2019/06/12 15:29:46;;;;;;;1;0.8;;;;;;;;;;;;;
2019/06/12 15:32:11;;;;;;;1.5;0.7;;;;;;;;;;;;;
2019/06/12 15:34:36;;;;;;;0.7;0.7;;;;;;;;;;;;;
2019/06/12 15:37:01;;;;;;;0.8;0.8;;;;;;;;;;;;;
2019/06/12 15:39:26;;;;;;;1;0.8;;;;;;;;;;;;;
2019/06/12 15:41:51;;;;;;;0.7;0.7;;;;;;;;;;;;;
2019/06/12 15:44:16;;;;;;;1.5;1;;;;;;;;;;;;;
2019/06/12 15:46:41;;;;;;;1.9;1;;;;;;;;;;;;;
2019/06/12 15:49:06;;;;;;;1.6;1.2;;;;;;;;;;;;;
2019/06/12 15:51:31;;;;;;;1.8;0.9;;;;;;;;;;;;;
2019/06/12 15:53:57;;;;;;;0.9;0.9;;;;;;;;;;;;;
2019/06/12 15:56:22;;;;;;;1.8;0.9;;;;;;;;;;;;;
2019/06/12 15:58:47;;;;;;;2;0.9;;;;;;;;;;;;;
2019/06/12 16:01:12;;;;;;;1.2;0.7;;;;;;;;;;;;;
2019/06/12 16:03:37;;;;;;;0.9;0.7;;;;;;;;;;;;;
2019/06/12 16:06:03;;;;;;;1;0.9;;;;;;;;;;;;;
2019/06/12 16:08:27;;;;;;;2;1;;;;;;;;;;;;;
2019/06/12 16:10:52;;;;;;;0.8;0.8;;;;;;;;;;;;;
2019/06/12 16:13:18;;;;;;;1.4;0.9;;;;;;;;;;;;;
2019/06/12 16:15:43;;;;;;;1;0.9;;;;;;;;;;;;;
2019/06/12 16:18:08;;;;;;;1;0.7;;;;;;;;;;;;;
2019/06/12 16:20:33;;;;;;;1.6;0.9;;;;;;;;;;;;;
2019/06/12 16:22:59;;;;;;;1.3;0.8;;;;;;;;;;;;;
2019/06/12 16:25:23;;;;;;;1;0.9;;;;;;;;;;;;;
2019/06/12 16:27:49;;;;;;;0.7;0.7;;;;;;;;;;;;;
2019/06/12 16:30:14;;;;;;;2;0.8;;;;;;;;;;;;;
2019/06/12 16:32:39;;;;;;;1.2;0.8;;;;;;;;;;;;;
2019/06/12 16:35:04;;;;;;;0.9;0.8;;;;;;;;;;;;;
2019/06/12 16:37:29;;;;;;;1.3;1;;;;;;;;;;;;;
2019/06/12 16:39:54;;;;;;;1.2;1;;;;;;;;;;;;;
2019/06/12 16:42:20;;;;;;;0.8;0.8;;;;;;;;;;;;;
2019/06/12 16:44:44;;;;;;;1;0.8;;;;;;;;;;;;;
2019/06/12 16:47:10;;;;;;;1;0.9;;;;;;;;;;;;;
2019/06/12 16:49:35;;;;;;;1;0.9;;;;;;;;;;;;;
2019/06/12 16:52:00;;;;;;;1;0.8;;;;;;;;;;;;;
2019/06/12 16:54:27;;;;;;;0.9;0.8;;;;;;;;;;;;;
2019/06/12 16:56:52;;;;;;;0.8;0.8;;;;;;;;;;;;;
2019/06/12 16:59:17;;;;;;;1;0.9;;;;;;;;;;;;;
2019/06/12 17:01:42;;;;;;;0.9;0.8;;;;;;;;;;;;;
2019/06/12 17:04:07;;;;;;;1.3;0.7;;;;;;;;;;;;;
2019/06/12 17:06:32;;;;;;;1;0.8;;;;;;;;;;;;;
2019/06/12 17:08:57;;;;;;;1;0.8;;;;;;;;;;;;;
2019/06/12 17:11:22;;;;;;;1.2;1;;;;;;;;;;;;;
2019/06/12 17:13:47;;;;;;;0.9;0.8;;;;;;;;;;;;;
2019/06/12 17:16:12;;;;;;;1.1;0.9;;;;;;;;;;;;;
2019/06/12 17:18:38;;;;;;;1.4;0.9;;;;;;;;;;;;;
2019/06/12 17:21:03;;;;;;;3.2;0.9;;;;;;;;;;;;;
2019/06/12 17:23:28;;;;;;;1.1;0.7;;;;;;;;;;;;;
2019/06/12 17:25:53;;;;;;;0.9;0.7;;;;;;;;;;;;;